Data for 12/27/2015

Time Sea-Level Adjusted Pressure Absolute Pressure Temperature Relative Humidity Dew Point   
(mb) (inHg) (mb) (inHg) (C) (F) (%) (C) (F)
00:05 1029 30.39 858 25.34 -13.9 7.1 73 -17.8 0
00:10 1029 30.39 858 25.34 -13.7 7.3 74 -17.5 0.6
00:15 1029 30.39 858 25.34 -14.1 6.7 74 -17.7 0.1
00:20 1029 30.39 858 25.34 -14.4 6.2 75 -17.9 -0.1
00:25 1029 30.39 858 25.34 -14 6.7 74 -17.7 0.1
00:30 1028 30.36 858 25.34 -13.5 7.7 73 -17.4 0.8
00:35 1028 30.36 858 25.34 -13.5 7.6 73 -17.4 0.7
00:40 1028 30.36 858 25.34 -14.1 6.7 74 -17.7 0.1
00:45 1028 30.36 857 25.31 -14.3 6.3 75 -17.8 -0.1
00:50 1028 30.36 857 25.31 -14.6 5.7 76 -18 -0.4
00:55 1028 30.36 857 25.31 -14.6 5.8 75 -18.1 -0.6
01:00 1028 30.36 857 25.31 -14.6 5.7 73 -18.4 -1
01:05 1028 30.36 857 25.31 -14.9 5.1 76 -18.2 -0.7
01:10 1028 30.36 857 25.31 -14 6.9 74 -17.6 0.3
01:15 1028 30.36 857 25.31 -13.6 7.5 73 -17.5 0.5
01:20 1028 30.36 857 25.31 -13.4 7.9 71 -17.6 0.4
01:25 1028 30.36 857 25.31 -14.1 6.5 74 -17.8 -0.1
01:30 1027 30.33 857 25.31 -14.2 6.4 75 -17.7 0.1
01:35 1027 30.33 856 25.28 -14.1 6.5 75 -17.7 0.1
01:40 1027 30.33 856 25.28 -14.2 6.4 74 -17.8 -0.1
01:45 1027 30.33 856 25.28 -14.2 6.4 74 -17.9 -0.3
01:50 1027 30.33 856 25.28 -14.4 6.1 75 -18 -0.3
01:55 1027 30.33 856 25.28 -14.4 6 75 -18 -0.4
02:00 1027 30.33 856 25.28 -14.4 6.2 74 -18 -0.4
02:05 1027 30.33 856 25.28 -14.2 6.4 74 -17.8 -0.1
02:10 1027 30.33 856 25.28 -14.2 6.4 74 -17.9 -0.3
02:15 1027 30.33 856 25.28 -14.3 6.2 74 -17.9 -0.3
02:20 1027 30.33 856 25.28 -14.4 6.2 74 -18 -0.3
02:25 1027 30.33 856 25.28 -14.2 6.5 74 -17.8 -0
02:30 1027 30.33 856 25.28 -13.8 7.2 73 -17.6 0.3
02:35 1027 30.33 856 25.28 -13.5 7.7 72 -17.5 0.6
02:40 1027 30.33 856 25.28 -13.3 8.2 71 -17.5 0.5
02:45 1027 30.33 856 25.28 -13.2 8.3 71 -17.4 0.6
02:50 1027 30.33 856 25.28 -13.3 8.1 71 -17.5 0.6
02:55 1026 30.3 856 25.28 -13.2 8.3 70 -17.5 0.6
03:00 1026 30.3 855 25.25 -13.2 8.2 73 -17 1.3
03:05 1026 30.3 855 25.25 -13.1 8.4 72 -17.2 1.1
03:10 1026 30.3 855 25.25 -12.8 9 70 -17.1 1.2
03:15 1026 30.3 855 25.25 -12.8 8.9 69 -17.4 0.7
03:20 1026 30.3 855 25.25 -12.9 8.9 69 -17.4 0.6
03:25 1026 30.3 855 25.25 -13 8.6 69 -17.5 0.4
03:30 1026 30.3 855 25.25 -13.5 7.7 71 -17.8 0
03:35 1026 30.3 855 25.25 -13.6 7.5 70 -17.9 -0.3
03:40 1026 30.3 855 25.25 -13.8 7.2 71 -18 -0.5
03:45 1026 30.3 855 25.25 -13.9 7 72 -18 -0.4
03:50 1026 30.3 855 25.25 -14 6.8 72 -18 -0.5
03:55 1026 30.3 855 25.25 -13.8 7.1 71 -18 -0.3
04:00 1026 30.3 855 25.25 -13.7 7.3 71 -18 -0.3
04:05 1026 30.3 855 25.25 -13.7 7.3 71 -17.9 -0.2
04:10 1026 30.3 855 25.25 -13.8 7.3 71 -17.9 -0.2
04:15 1026 30.3 855 25.25 -13.7 7.3 72 -17.7 0.2
04:20 1026 30.3 855 25.25 -13.5 7.6 71 -17.8 0
04:25 1026 30.3 855 25.25 -13.5 7.7 71 -17.6 0.3
04:30 1026 30.3 855 25.25 -13.6 7.5 72 -17.6 0.3
04:35 1026 30.3 855 25.25 -13.8 7.2 73 -17.6 0.3
04:40 1026 30.3 855 25.25 -14 6.8 72 -17.9 -0.3
04:45 1026 30.3 855 25.25 -14.1 6.6 72 -18.1 -0.6
04:50 1026 30.3 855 25.25 -14.1 6.6 72 -18.1 -0.6
04:55 1026 30.3 855 25.25 -14.2 6.4 72 -18.1 -0.7
05:00 1026 30.3 855 25.25 -14.6 5.8 73 -18.4 -1.1
05:05 1026 30.3 855 25.25 -14.8 5.4 74 -18.5 -1.2
05:10 1026 30.3 855 25.25 -15 5 75 -18.5 -1.3
05:15 1026 30.3 855 25.25 -14.8 5.3 74 -18.4 -1.2
05:20 1026 30.3 855 25.25 -14.7 5.6 74 -18.3 -0.9
05:25 1026 30.3 855 25.25 -14 6.8 72 -18 -0.4
05:30 1026 30.3 855 25.25 -13.7 7.3 71 -17.8 -0.1
05:35 1026 30.3 855 25.25 -14 6.8 71 -18.1 -0.6
05:40 1025 30.27 855 25.25 -14.3 6.3 73 -18.2 -0.7
05:45 1025 30.27 855 25.25 -14.3 6.3 73 -18.1 -0.7
05:50 1025 30.27 855 25.25 -14.4 6 73 -18.3 -1
05:55 1025 30.27 855 25.25 -14.4 6 73 -18.3 -0.9
06:00 1025 30.27 855 25.25 -14.3 6.4 73 -18.2 -0.7
06:05 1025 30.27 855 25.25 -14.1 6.6 72 -18.1 -0.5
06:10 1025 30.27 855 25.25 -13.9 7 72 -17.9 -0.3
06:15 1025 30.27 855 25.25 -13.7 7.3 72 -17.7 0.2
06:20 1025 30.27 854 25.22 -14.2 6.4 73 -18 -0.4
06:25 1025 30.27 854 25.22 -14.8 5.4 76 -18.1 -0.6
06:30 1025 30.27 854 25.22 -14.7 5.5 77 -18 -0.3
06:35 1025 30.27 854 25.22 -14.8 5.4 79 -17.7 0.2
06:40 1025 30.27 854 25.22 -13.7 7.3 71 -17.9 -0.3
06:45 1025 30.27 854 25.22 -13.2 8.2 71 -17.5 0.5
06:50 1025 30.27 854 25.22 -13.3 8 70 -17.6 0.2
06:55 1025 30.27 854 25.22 -13.5 7.8 70 -17.8 -0.1
07:00 1025 30.27 854 25.22 -13.5 7.8 70 -17.8 -0.1
07:05 1025 30.27 854 25.22 -13.3 8 69 -17.8 -0.1
07:10 1024 30.24 854 25.22 -13.4 7.9 69 -17.9 -0.3
07:15 1024 30.24 853 25.19 -13.8 7.2 70 -18.1 -0.6
07:20 1024 30.24 853 25.19 -14.1 6.6 72 -18.1 -0.6
07:25 1024 30.24 853 25.19 -13.7 7.4 71 -17.9 -0.2
07:30 1024 30.24 853 25.19 -13.5 7.8 69 -17.9 -0.3
07:35 1024 30.24 853 25.19 -13.7 7.3 70 -18.1 -0.6
07:40 1024 30.24 853 25.19 -13.9 7 70 -18.2 -0.7
07:45 1024 30.24 853 25.19 -13.9 7 70 -18.2 -0.8
07:50 1024 30.24 853 25.19 -14 6.7 71 -18.2 -0.7
07:55 1024 30.24 853 25.19 -13.8 7.2 71 -17.9 -0.3
08:00 1024 30.24 853 25.19 -13.7 7.4 70 -18 -0.5
08:05 1024 30.24 853 25.19 -13.8 7.1 70 -18.1 -0.7
08:10 1024 30.24 853 25.19 -14.4 6.1 73 -18.2 -0.8
08:15 1024 30.24 853 25.19 -14.8 5.4 75 -18.2 -0.8
08:20 1024 30.24 853 25.19 -14.3 6.2 74 -17.9 -0.2
08:25 1024 30.24 853 25.19 -13.6 7.5 71 -17.7 0.1
08:30 1024 30.24 853 25.19 -13.4 7.9 70 -17.8 0
08:35 1024 30.24 853 25.19 -13.8 7.2 71 -18 -0.5
08:40 1024 30.24 853 25.19 -13.3 8 69 -17.9 -0.2
08:45 1024 30.24 853 25.19 -13.5 7.7 70 -17.9 -0.2
08:50 1024 30.24 853 25.19 -14.3 6.3 79 -17.2 1
08:55 1024 30.24 853 25.19 -15 5.1 78 -18 -0.3
09:00 1024 30.24 853 25.19 -15.6 4 79 -18.4 -1.2
09:05 1024 30.24 853 25.19 -15.9 3.3 78 -18.9 -2
09:10 1024 30.24 853 25.19 -16 3.3 78 -18.9 -2.1
09:15 1024 30.24 853 25.19 -16.1 3 77 -19.3 -2.7
09:20 1024 30.24 853 25.19 -16.2 2.8 77 -19.3 -2.8
09:25 1024 30.24 853 25.19 -16.3 2.7 77 -19.4 -3
09:30 1024 30.24 853 25.19 -16.5 2.4 79 -19.3 -2.7
09:35 1024 30.24 853 25.19 -16.6 2.2 80 -19.3 -2.8
09:40 1024 30.24 853 25.19 -16.5 2.3 80 -19.2 -2.6
09:45 1024 30.24 853 25.19 -16.4 2.4 80 -19.1 -2.4
09:50 1024 30.24 853 25.19 -16.3 2.6 80 -19 -2.3
09:55 1024 30.24 853 25.19 -16.3 2.7 80 -19 -2.1
10:00 1024 30.24 853 25.19 -15.8 3.5 77 -19 -2.2
10:05 1024 30.24 853 25.19 -15.6 3.9 76 -18.9 -2.1
10:10 1024 30.24 853 25.19 -15.6 3.9 75 -19 -2.2
10:15 1024 30.24 853 25.19 -15.6 3.9 76 -19 -2.2
10:20 1024 30.24 853 25.19 -15.4 4.2 75 -18.8 -1.9
10:25 1024 30.24 853 25.19 -15.2 4.6 76 -18.6 -1.4
10:30 1024 30.24 853 25.19 -15.1 4.9 77 -18.3 -1
10:35 1024 30.24 853 25.19 -14.7 5.6 75 -18.2 -0.7
10:40 1024 30.24 853 25.19 -14.4 6.1 74 -18 -0.4
10:45 1024 30.24 853 25.19 -14 6.8 73 -17.9 -0.3
10:50 1024 30.24 853 25.19 -14 6.9 73 -17.7 0.1
10:55 1024 30.24 853 25.19 -13.9 7 73 -17.7 0.2
11:00 1023 30.21 853 25.19 -13.6 7.5 73 -17.5 0.5
11:05 1023 30.21 853 25.19 -13.2 8.3 71 -17.3 0.8
11:10 1023 30.21 853 25.19 -12.6 9.3 69 -17.2 1.1
11:15 1024 30.24 853 25.19 -12.2 10 68 -17 1.4
11:20 1024 30.24 853 25.19 -11.9 10.7 66 -17 1.5
11:25 1024 30.24 853 25.19 -11.9 10.6 67 -16.8 1.8
11:30 1024 30.24 853 25.19 -11.8 10.9 67 -16.6 2
11:35 1024 30.24 853 25.19 -11.7 10.9 67 -16.7 1.9
11:40 1024 30.24 853 25.19 -12.5 9.6 69 -17 1.3
11:45 1024 30.24 853 25.19 -12.7 9.2 68 -17.3 0.8
11:50 1024 30.24 853 25.19 -12.4 9.6 68 -17.2 1.1
11:55 1024 30.24 853 25.19 -12.1 10.2 66 -17.1 1.2
12:00 1024 30.24 853 25.19 -12.2 10 67 -17.1 1.2
12:05 1023 30.21 853 25.19 -12 10.3 67 -17.1 1.3
12:10 1023 30.21 852 25.16 -11.9 10.7 66 -17 1.5
12:15 1023 30.21 852 25.16 -11.5 11.2 67 -16.6 2.2
12:20 1023 30.21 852 25.16 -11.2 11.8 66 -16.3 2.6
12:25 1023 30.21 852 25.16 -10.9 12.4 65 -16.2 2.8
12:30 1023 30.21 852 25.16 -10.7 12.7 65 -16.1 2.9
12:35 1023 30.21 852 25.16 -10.7 12.7 65 -16.1 3
12:40 1022 30.18 852 25.16 -10.5 13.2 64 -16 3.2
12:45 1022 30.18 852 25.16 -10.3 13.4 62 -16.3 2.6
12:50 1022 30.18 851 25.13 -10.6 13 62 -16.5 2.3
12:55 1022 30.18 851 25.13 -10.7 12.7 63 -16.5 2.3
13:00 1022 30.18 851 25.13 -10.5 13.2 62 -16.4 2.6
13:05 1022 30.18 851 25.13 -10.2 13.7 61 -16.3 2.6
13:10 1022 30.18 851 25.13 -9.9 14.2 60 -16.3 2.7
13:15 1022 30.18 851 25.13 -9.5 14.9 59 -16.1 3
13:20 1022 30.18 851 25.13 -9.3 15.3 58 -16.1 3.1
13:25 1022 30.18 851 25.13 -9.5 14.9 59 -16.1 3
13:30 1022 30.18 851 25.13 -9.6 14.8 60 -15.9 3.4
13:35 1022 30.18 851 25.13 -9.3 15.3 58 -16.1 3
13:40 1021 30.15 851 25.13 -9.5 15 58 -16.2 2.9
13:45 1021 30.15 850 25.1 -9.4 15 57 -16.5 2.4
13:50 1021 30.15 850 25.1 -9.4 15.1 57 -16.5 2.4
13:55 1021 30.15 850 25.1 -9.1 15.6 56 -16.4 2.4
14:00 1021 30.15 850 25.1 -9 15.8 56 -16.2 2.9
14:05 1021 30.15 850 25.1 -8.9 16 56 -16.1 3
14:10 1021 30.15 850 25.1 -8.8 16.2 55 -16.2 2.9
14:15 1020 30.12 850 25.1 -8.8 16.2 55 -16.3 2.7
14:20 1020 30.12 849 25.07 -8.6 16.5 55 -16 3.2
14:25 1020 30.12 849 25.07 -8.5 16.8 56 -15.8 3.6
14:30 1020 30.12 849 25.07 -8.3 17.1 54 -15.9 3.3
14:35 1020 30.12 849 25.07 -8.1 17.5 55 -15.6 4
14:40 1020 30.12 849 25.07 -7.8 18.1 54 -15.5 4.1
14:45 1020 30.12 849 25.07 -7.5 18.6 53 -15.4 4.3
14:50 1020 30.12 849 25.07 -7.7 18.1 60 -14.2 6.4
14:55 1020 30.12 849 25.07 -9.6 14.8 71 -14 6.9
15:00 1020 30.12 849 25.07 -11 12.1 72 -15.1 4.9
15:05 1020 30.12 849 25.07 -11.2 11.8 72 -15.4 4.3
15:10 1020 30.12 849 25.07 -11.8 10.8 74 -15.5 4.2
15:15 1020 30.12 849 25.07 -11.5 11.3 74 -15.3 4.4
15:20 1020 30.12 849 25.07 -11.4 11.5 73 -15.3 4.4
15:25 1020 30.12 849 25.07 -11.4 11.4 71 -15.7 3.8
15:30 1020 30.12 849 25.07 -11.2 11.9 69 -15.8 3.5
15:35 1020 30.12 849 25.07 -11.1 12 70 -15.5 4
15:40 1020 30.12 849 25.07 -11.5 11.4 70 -15.9 3.4
15:45 1020 30.12 849 25.07 -11.1 12 68 -15.8 3.5
15:50 1020 30.12 849 25.07 -11 12.2 69 -15.6 3.9
15:55 1020 30.12 849 25.07 -10.9 12.5 68 -15.7 3.8
16:00 1020 30.12 849 25.07 -10.7 12.7 68 -15.5 4
16:05 1020 30.12 849 25.07 -10.8 12.6 67 -15.7 3.7
16:10 1020 30.12 849 25.07 -10.8 12.7 67 -15.8 3.6
16:15 1020 30.12 849 25.07 -10.8 12.5 68 -15.7 3.7
16:20 1020 30.12 849 25.07 -11 12.2 68 -15.8 3.5
16:25 1020 30.12 849 25.07 -11.2 11.8 69 -15.7 3.7
16:30 1020 30.12 849 25.07 -11.1 12 69 -15.8 3.6
16:35 1020 30.12 849 25.07 -11.2 11.9 69 -15.8 3.6
16:40 1020 30.12 849 25.07 -11.4 11.5 71 -15.7 3.7
16:45 1020 30.12 849 25.07 -11.5 11.2 72 -15.7 3.8
16:50 1020 30.12 849 25.07 -11.8 10.7 73 -15.8 3.5
16:55 1020 30.12 849 25.07 -12.2 10.1 74 -15.9 3.3
17:00 1020 30.12 849 25.07 -12.2 10 75 -15.7 3.7
17:05 1020 30.12 849 25.07 -12.2 10.1 74 -15.8 3.5
17:10 1020 30.12 849 25.07 -12.1 10.2 75 -15.7 3.7
17:15 1020 30.12 849 25.07 -12 10.4 74 -15.7 3.8
17:20 1020 30.12 849 25.07 -12 10.5 75 -15.5 4.1
17:25 1020 30.12 849 25.07 -11.9 10.7 75 -15.5 4.2
17:30 1020 30.12 849 25.07 -11.8 10.8 75 -15.4 4.2
17:35 1020 30.12 849 25.07 -11.7 11 75 -15.2 4.6
17:40 1020 30.12 849 25.07 -11.6 11.2 75 -15.2 4.6
17:45 1019 30.09 849 25.07 -11.5 11.3 75 -15.2 4.7
17:50 1019 30.09 848 25.04 -11.5 11.4 75 -15.1 4.8
17:55 1019 30.09 848 25.04 -11.4 11.5 75 -15 5
18:00 1019 30.09 848 25.04 -11.3 11.6 75 -15 5.1
18:05 1019 30.09 848 25.04 -11.3 11.6 75 -14.9 5.1
18:10 1019 30.09 848 25.04 -11.2 11.8 74 -14.9 5.1
18:15 1019 30.09 848 25.04 -11.2 11.8 75 -14.9 5.2
18:20 1019 30.09 848 25.04 -11.1 12 73 -15 5.1
18:25 1019 30.09 848 25.04 -11 12.2 73 -14.9 5.1
18:30 1019 30.09 848 25.04 -10.9 12.4 73 -14.9 5.3
18:35 1018 30.06 848 25.04 -10.8 12.7 72 -14.8 5.3
18:40 1018 30.06 847 25.01 -10.7 12.7 72 -14.8 5.4
18:45 1018 30.06 847 25.01 -10.7 12.7 72 -14.9 5.2
18:50 1018 30.06 847 25.01 -10.7 12.8 71 -15 5
18:55 1018 30.06 847 25.01 -10.3 13.4 70 -14.8 5.4
19:00 1018 30.06 847 25.01 -10.1 13.8 68 -14.9 5.1
19:05 1018 30.06 847 25.01 -9.7 14.6 67 -14.7 5.5
19:10 1018 30.06 847 25.01 -9.6 14.6 67 -14.7 5.6
19:15 1018 30.06 847 25.01 -9.7 14.6 66 -14.9 5.2
19:20 1018 30.06 847 25.01 -9.5 14.9 66 -14.8 5.4
19:25 1018 30.06 847 25.01 -9.4 15 66 -14.6 5.7
19:30 1018 30.06 847 25.01 -9.3 15.2 72 -13.4 7.8
19:35 1018 30.06 847 25.01 -9.3 15.2 73 -13.3 8.1
19:40 1018 30.06 847 25.01 -9.4 15.1 71 -13.8 7.1
19:45 1018 30.06 847 25.01 -9.6 14.7 71 -13.9 6.9
19:50 1018 30.06 847 25.01 -9.8 14.4 72 -13.9 7
19:55 1018 30.06 847 25.01 -9.9 14.2 73 -14 6.9
20:00 1018 30.06 847 25.01 -10.1 13.8 74 -14 6.8
20:05 1018 30.06 847 25.01 -10.5 13 74 -14.3 6.3
20:10 1018 30.06 847 25.01 -10.7 12.8 76 -14.2 6.5
20:15 1018 30.06 847 25.01 -10.8 12.6 76 -14.2 6.4
20:20 1018 30.06 847 25.01 -10.8 12.5 76 -14.2 6.4
20:25 1018 30.06 847 25.01 -10.8 12.5 76 -14.3 6.3
20:30 1018 30.06 847 25.01 -10.8 12.6 76 -14.2 6.4
20:35 1017 30.03 847 25.01 -10.8 12.6 77 -14.1 6.6
20:40 1017 30.03 847 25.01 -10.7 12.7 77 -14.1 6.7
20:45 1017 30.03 846 24.98 -10.7 12.7 76 -14.2 6.4
20:50 1017 30.03 846 24.98 -10.8 12.6 77 -14.1 6.6
20:55 1017 30.03 846 24.98 -10.8 12.5 76 -14.4 6.2
21:00 1017 30.03 846 24.98 -10.6 12.9 76 -14.1 6.7
21:05 1017 30.03 846 24.98 -10.5 13.1 76 -13.9 6.9
21:10 1017 30.03 846 24.98 -10.6 12.9 76 -14.1 6.6
21:15 1017 30.03 846 24.98 -10.5 13.2 75 -14.1 6.6
21:20 1017 30.03 846 24.98 -10.2 13.6 74 -14 6.9
21:25 1017 30.03 846 24.98 -10.3 13.4 76 -13.8 7.1
21:30 1017 30.03 846 24.98 -10.5 13.2 76 -13.9 6.9
21:35 1017 30.03 846 24.98 -10.6 13 76 -14 6.7
21:40 1017 30.03 846 24.98 -10.6 12.9 76 -14.1 6.7
21:45 1017 30.03 846 24.98 -10.6 12.8 76 -14.1 6.7
21:50 1016 30 846 24.98 -10.6 12.9 75 -14.2 6.4
21:55 1016 30 846 24.98 -10.4 13.2 74 -14.2 6.5
22:00 1016 30 845 24.95 -10.4 13.3 75 -14.1 6.7
22:05 1016 30 845 24.95 -10.4 13.2 75 -14 6.8
22:10 1016 30 845 24.95 -10.4 13.3 75 -14.1 6.6
22:15 1016 30 845 24.95 -10.2 13.7 70 -14.6 5.7
22:20 1016 30 845 24.95 -9.7 14.6 69 -14.4 6.1
22:25 1016 30 845 24.95 -9.3 15.2 66 -14.6 5.7
22:30 1016 30 845 24.95 -9 15.8 65 -14.5 5.9
22:35 1016 30 845 24.95 -9.2 15.4 68 -14.2 6.5
22:40 1016 30 845 24.95 -9.6 14.8 68 -14.3 6.2
22:45 1016 30 845 24.95 -9.6 14.7 69 -14.3 6.3
22:50 1016 30 845 24.95 -9.7 14.5 71 -14.1 6.6
22:55 1016 30 845 24.95 -9.6 14.7 71 -14 6.8
23:00 1016 30 845 24.95 -9.5 14.9 71 -13.9 7
23:05 1016 30 845 24.95 -9.5 15 70 -13.9 6.9
23:10 1016 30 845 24.95 -9.6 14.7 72 -13.8 7.2
23:15 1016 30 845 24.95 -9.8 14.4 73 -13.8 7.2
23:20 1016 30 845 24.95 -10 14 74 -13.8 7.2
23:25 1016 30 845 24.95 -10.1 13.8 76 -13.6 7.5
23:30 1016 30 845 24.95 -10.2 13.7 75 -13.7 7.3
23:35 1016 30 845 24.95 -10.2 13.6 76 -13.7 7.3
23:40 1016 30 845 24.95 -10.3 13.4 76 -13.7 7.3
23:45 1016 30 845 24.95 -10.3 13.4 77 -13.6 7.5
23:50 1016 30 845 24.95 -10.3 13.4 77 -13.7 7.4
23:55 1016 30 845 24.95 -10.3 13.4 77 -13.6 7.4
24:00 1016 30 845 24.95 -10.3 13.4 77 -13.7 7.3